createdAt,value
2018-06-05T00:00:14.502Z,4.40
2018-06-05T00:02:43.820Z,4.70
2018-06-05T00:05:13.233Z,3.63
2018-06-05T00:07:42.818Z,4.77
2018-06-05T00:10:11.810Z,4.93
2018-06-05T00:12:40.792Z,4.67
2018-06-05T00:15:09.795Z,3.97
2018-06-05T00:17:39.805Z,3.30
2018-06-05T00:20:08.829Z,3.70
2018-06-05T00:22:37.903Z,4.50
2018-06-05T00:25:07.017Z,3.57
2018-06-05T00:27:36.087Z,4.83
2018-06-05T00:30:05.275Z,3.73
2018-06-05T00:32:34.243Z,4.07
2018-06-05T00:35:03.273Z,3.90
2018-06-05T00:37:32.276Z,3.60
2018-06-05T00:40:01.696Z,3.50
2018-06-05T00:42:30.675Z,4.07
2018-06-05T00:44:59.695Z,3.60
2018-06-05T00:47:28.767Z,4.20
2018-06-05T00:49:57.729Z,3.87
2018-06-05T00:52:26.740Z,4.10
2018-06-05T00:54:55.751Z,3.90
2018-06-05T00:57:24.790Z,3.77
2018-06-05T00:59:53.839Z,4.57
2018-06-05T01:02:22.837Z,4.43
2018-06-05T01:04:51.803Z,4.50
2018-06-05T01:07:20.827Z,4.73
2018-06-05T01:09:49.775Z,4.30
2018-06-05T01:12:18.884Z,4.43
2018-06-05T01:14:47.803Z,4.30
2018-06-05T01:17:16.756Z,3.33
2018-06-05T01:19:45.767Z,3.70
2018-06-05T01:22:14.887Z,4.03
2018-06-05T01:24:43.875Z,3.80
2018-06-05T01:27:14.343Z,3.63
2018-06-05T01:29:43.376Z,4.40
2018-06-05T01:32:12.314Z,3.77
2018-06-05T01:34:41.378Z,4.10
2018-06-05T01:37:10.540Z,3.40
2018-06-05T01:39:40.028Z,3.60
2018-06-05T01:42:09.074Z,3.70
2018-06-05T01:44:38.141Z,3.73
2018-06-05T01:47:07.175Z,4.73
2018-06-05T01:49:41.184Z,3.97
2018-06-05T01:52:10.330Z,4.00
2018-06-05T01:54:39.535Z,4.50
2018-06-05T01:57:08.533Z,4.13
2018-06-05T01:59:37.587Z,4.00
2018-06-05T02:02:06.557Z,4.50
2018-06-05T02:04:35.560Z,3.83
2018-06-05T02:07:04.541Z,4.23
2018-06-05T02:09:33.541Z,4.70
2018-06-05T02:12:02.545Z,4.37
2018-06-05T02:14:31.530Z,4.70
2018-06-05T02:17:00.535Z,3.90
2018-06-05T02:19:29.513Z,4.97
2018-06-05T02:21:58.525Z,4.27
2018-06-05T02:24:27.500Z,3.70
2018-06-05T02:26:56.571Z,4.60
2018-06-05T02:29:25.626Z,3.87
2018-06-05T02:31:55.231Z,3.97
2018-06-05T02:34:24.259Z,4.77
2018-06-05T02:36:53.221Z,5.10
2018-06-05T02:39:22.233Z,4.13
2018-06-05T02:41:51.204Z,3.73
2018-06-05T02:44:20.275Z,4.50
2018-06-05T02:46:49.313Z,3.97
2018-06-05T02:49:18.395Z,4.63
2018-06-05T02:51:47.419Z,4.03
2018-06-05T02:54:16.348Z,4.57
2018-06-05T02:56:45.389Z,4.10
2018-06-05T02:59:14.357Z,4.80
2018-06-05T03:01:43.375Z,4.10
2018-06-05T03:04:12.343Z,4.63
2018-06-05T03:06:41.347Z,3.97
2018-06-05T03:09:10.456Z,4.77
2018-06-05T03:11:39.477Z,4.60
2018-06-05T03:14:08.731Z,3.80
2018-06-05T03:16:37.690Z,4.33
2018-06-05T03:19:06.707Z,5.37
2018-06-05T03:21:35.689Z,4.37
2018-06-05T03:24:04.880Z,4.53
2018-06-05T03:26:33.851Z,3.87
2018-06-05T03:29:03.744Z,3.20
2018-06-05T03:31:32.731Z,3.77
2018-06-05T03:34:01.808Z,4.67
2018-06-05T03:36:30.842Z,5.57
2018-06-05T03:38:59.821Z,5.17
2018-06-05T03:41:30.869Z,4.80
2018-06-05T03:43:59.875Z,4.23
2018-06-05T03:46:28.942Z,5.50
2018-06-05T03:48:57.930Z,4.83
2018-06-05T03:51:27.013Z,5.50
2018-06-05T03:53:56.363Z,4.90
2018-06-05T03:56:25.407Z,4.80
2018-06-05T03:58:54.437Z,3.67
2018-06-05T04:01:23.507Z,5.73
2018-06-05T04:03:52.561Z,4.00
2018-06-05T04:06:21.698Z,4.40
2018-06-05T04:08:50.786Z,4.57
2018-06-05T04:11:19.969Z,4.50
2018-06-05T04:13:49.018Z,4.43
2018-06-05T04:16:18.010Z,4.93
2018-06-05T04:18:47.077Z,4.70
2018-06-05T04:21:17.097Z,4.83
2018-06-05T04:23:46.120Z,4.63
2018-06-05T04:26:15.240Z,6.10
2018-06-05T04:28:44.914Z,5.07
2018-06-05T04:31:14.080Z,4.90
2018-06-05T04:33:43.186Z,5.17
2018-06-05T04:36:12.317Z,4.90
2018-06-05T04:38:41.386Z,4.80
2018-06-05T04:41:10.477Z,5.07
2018-06-05T04:43:39.516Z,4.87
2018-06-05T04:46:08.500Z,5.00
2018-06-05T04:48:37.526Z,6.70
2018-06-05T04:51:06.543Z,7.50
2018-06-05T04:53:35.715Z,6.57
2018-06-05T04:56:04.757Z,7.33
2018-06-05T04:58:33.971Z,5.60
2018-06-05T05:01:03.220Z,5.73
2018-06-05T05:03:32.223Z,5.27
2018-06-05T05:06:01.401Z,5.40
2018-06-05T05:08:30.366Z,5.80
2018-06-05T05:10:59.383Z,5.80
2018-06-05T05:13:28.316Z,6.40
2018-06-05T05:15:57.534Z,7.10
2018-06-05T05:18:26.541Z,5.30
2018-06-05T05:20:55.512Z,4.80
2018-06-05T05:23:24.647Z,6.60
2018-06-05T05:25:53.705Z,6.53
2018-06-05T05:28:22.790Z,6.93
2018-06-05T05:30:51.813Z,6.40
2018-06-05T05:33:20.841Z,5.53
2018-06-05T05:35:49.981Z,4.87
2018-06-05T05:38:18.956Z,6.60
2018-06-05T05:40:48.966Z,5.67
2018-06-05T05:43:18.043Z,6.53
2018-06-05T05:45:48.090Z,4.70
2018-06-05T05:48:17.602Z,5.40
2018-06-05T05:50:46.742Z,4.83
2018-06-05T05:53:15.897Z,4.70
2018-06-05T05:55:44.919Z,4.43
2018-06-05T05:58:13.951Z,4.30
2018-06-05T06:00:43.002Z,4.17
2018-06-05T06:03:12.020Z,4.93
2018-06-05T06:05:42.294Z,3.67
2018-06-05T06:08:11.334Z,4.50
2018-06-05T06:10:40.369Z,4.47
2018-06-05T06:13:09.485Z,3.43
2018-06-05T06:15:38.517Z,3.90
2018-06-05T06:18:07.547Z,3.50
2018-06-05T06:20:37.826Z,5.10
2018-06-05T06:23:06.931Z,5.33
2018-06-05T06:25:35.913Z,3.43
2018-06-05T06:28:04.972Z,4.10
2018-06-05T06:30:34.047Z,4.73
2018-06-05T06:33:03.648Z,4.00
2018-06-05T06:35:32.697Z,4.60
2018-06-05T06:38:01.722Z,4.50
2018-06-05T06:40:31.877Z,3.83
2018-06-05T06:43:01.081Z,4.03
2018-06-05T06:45:30.305Z,3.77
2018-06-05T06:47:59.996Z,4.53
2018-06-05T06:50:29.146Z,3.70
2018-06-05T06:52:58.683Z,3.83
2018-06-05T06:55:27.674Z,3.83
2018-06-05T06:57:56.732Z,3.97
2018-06-05T07:00:26.316Z,3.50
2018-06-05T07:02:55.286Z,3.20
2018-06-05T07:05:24.283Z,3.90
2018-06-05T07:07:53.270Z,3.77
2018-06-05T07:10:22.413Z,3.90
2018-06-05T07:12:51.351Z,3.57
2018-06-05T07:15:20.523Z,3.60
2018-06-05T07:17:49.547Z,4.60
2018-06-05T07:20:18.601Z,4.20
2018-06-05T07:22:47.954Z,3.00
2018-06-05T07:25:17.741Z,3.27
2018-06-05T07:27:48.090Z,3.67
2018-06-05T07:30:17.335Z,3.47
2018-06-05T07:32:46.293Z,3.37
2018-06-05T07:35:15.421Z,4.13
2018-06-05T07:37:44.453Z,3.67
2018-06-05T07:40:13.479Z,3.10
2018-06-05T07:42:42.464Z,4.50
2018-06-05T07:45:11.574Z,3.10
2018-06-05T07:47:40.567Z,3.70
2018-06-05T07:50:09.630Z,3.53
2018-06-05T07:52:38.557Z,3.47
2018-06-05T07:55:07.670Z,4.10
2018-06-05T07:57:36.793Z,4.20
2018-06-05T08:00:05.822Z,3.73
2018-06-05T08:02:34.926Z,3.13
2018-06-05T08:05:03.939Z,3.37
2018-06-05T08:07:33.012Z,3.90
2018-06-05T08:10:02.216Z,3.83
2018-06-05T08:12:31.233Z,4.20
2018-06-05T08:15:00.274Z,3.80
2018-06-05T08:17:29.335Z,3.40
2018-06-05T08:19:58.375Z,3.40
2018-06-05T08:22:36.421Z,3.60
2018-06-05T08:25:05.424Z,3.47
2018-06-05T08:27:34.436Z,3.20
2018-06-05T08:30:03.429Z,3.33
2018-06-05T08:32:32.576Z,3.50
2018-06-05T08:35:01.995Z,3.90
2018-06-05T08:37:31.039Z,4.30
2018-06-05T08:40:00.061Z,3.60
2018-06-05T08:42:29.084Z,3.60
2018-06-05T08:44:58.341Z,3.80
2018-06-05T08:47:27.356Z,4.13
2018-06-05T08:49:56.440Z,4.00
2018-06-05T08:52:25.431Z,3.67
2018-06-05T08:54:54.419Z,3.60
2018-06-05T08:57:23.421Z,3.90
2018-06-05T08:59:52.789Z,4.60
2018-06-05T09:02:21.778Z,3.03
2018-06-05T09:04:50.840Z,3.67
2018-06-05T09:07:26.022Z,3.37
2018-06-05T09:09:55.048Z,3.50
2018-06-05T09:12:24.374Z,3.57
2018-06-05T09:14:53.380Z,3.60
2018-06-05T09:17:22.368Z,2.63
2018-06-05T09:19:51.373Z,4.13
2018-06-05T09:22:20.417Z,4.40
2018-06-05T09:24:49.554Z,4.47
2018-06-05T09:27:19.311Z,3.70
2018-06-05T09:29:49.446Z,3.63
2018-06-05T09:32:18.451Z,4.27
2018-06-05T09:34:47.671Z,3.87
2018-06-05T09:37:16.730Z,3.90
2018-06-05T09:39:45.867Z,3.83
2018-06-05T09:42:14.928Z,3.90
2018-06-05T09:44:43.942Z,3.83
2018-06-05T09:47:13.044Z,4.33
2018-06-05T09:49:42.020Z,4.10
2018-06-05T09:52:11.099Z,4.57
2018-06-05T09:54:46.519Z,4.60
2018-06-05T09:57:15.537Z,4.10
2018-06-05T09:59:44.502Z,5.00
2018-06-05T10:02:13.517Z,4.40
2018-06-05T10:04:42.591Z,4.80
2018-06-05T10:07:12.503Z,4.13
2018-06-05T10:09:41.558Z,4.53
2018-06-05T10:12:10.573Z,6.97
2018-06-05T10:14:39.638Z,4.30
2018-06-05T10:17:08.742Z,4.70
2018-06-05T10:19:37.870Z,6.00
2018-06-05T10:22:06.954Z,4.33
2018-06-05T10:24:35.955Z,5.20
2018-06-05T10:27:05.006Z,5.30
2018-06-05T10:29:34.135Z,5.10
2018-06-05T10:32:03.322Z,4.47
2018-06-05T10:34:32.720Z,4.60
2018-06-05T10:37:02.966Z,4.43
2018-06-05T10:39:32.046Z,5.93
2018-06-05T10:42:01.164Z,4.90
2018-06-05T10:44:30.275Z,4.37
2018-06-05T10:46:59.424Z,4.10
2018-06-05T10:49:28.537Z,4.07
2018-06-05T10:51:57.563Z,5.20
2018-06-05T10:54:27.201Z,4.40
2018-06-05T10:56:56.227Z,4.60
2018-06-05T10:59:25.285Z,4.50
2018-06-05T11:01:54.345Z,5.43
2018-06-05T11:04:23.490Z,4.00
2018-06-05T11:06:52.661Z,4.43
2018-06-05T11:09:21.908Z,5.03
2018-06-05T11:11:51.054Z,5.53
2018-06-05T11:14:20.400Z,4.37
2018-06-05T11:16:49.467Z,5.27
2018-06-05T11:19:18.661Z,4.33
2018-06-05T11:21:47.813Z,4.90
2018-06-05T11:24:16.793Z,5.10
2018-06-05T11:26:45.844Z,4.87
2018-06-05T11:29:15.218Z,5.03
2018-06-05T11:31:44.347Z,5.67
2018-06-05T11:34:13.349Z,5.33
2018-06-05T11:36:42.786Z,4.97
2018-06-05T11:39:11.836Z,5.47
2018-06-05T11:41:40.813Z,5.30
2018-06-05T11:44:09.877Z,5.60
2018-06-05T11:46:38.986Z,4.97
2018-06-05T11:49:08.097Z,5.10
2018-06-05T11:51:37.104Z,5.40
2018-06-05T11:54:06.170Z,5.47
2018-06-05T11:56:35.198Z,4.70
2018-06-05T11:59:04.282Z,5.10
2018-06-05T12:01:33.306Z,5.63
2018-06-05T12:04:02.433Z,5.00
2018-06-05T12:06:31.603Z,4.53
2018-06-05T12:09:02.036Z,5.03
2018-06-05T12:14:07.007Z,5.00
2018-06-05T12:16:36.309Z,4.50
2018-06-05T12:19:05.343Z,5.23
2018-06-05T12:21:34.916Z,4.83
2018-06-05T12:24:04.098Z,5.03
2018-06-05T12:26:33.324Z,5.77
2018-06-05T12:29:02.515Z,5.50
2018-06-05T12:31:31.548Z,4.83
2018-06-05T12:34:00.599Z,5.30
2018-06-05T12:36:29.629Z,5.63
2018-06-05T12:38:58.676Z,4.70
2018-06-05T12:41:29.095Z,5.63
2018-06-05T12:43:58.210Z,5.50
2018-06-05T12:46:27.313Z,4.60
2018-06-05T12:48:56.449Z,5.93
2018-06-05T12:51:25.486Z,5.87
2018-06-05T12:53:54.479Z,5.37
2018-06-05T12:56:23.685Z,5.60
2018-06-05T12:58:52.699Z,5.53
2018-06-05T13:01:21.744Z,5.80
2018-06-05T13:03:50.816Z,5.10
2018-06-05T13:06:19.773Z,5.70
2018-06-05T13:08:49.076Z,5.83
2018-06-05T13:11:19.445Z,5.10
2018-06-05T13:13:50.300Z,5.03
2018-06-05T13:16:19.472Z,4.97
2018-06-05T13:18:48.568Z,5.20
2018-06-05T13:21:17.717Z,5.50
2018-06-05T13:23:46.834Z,5.00
2018-06-05T13:26:16.319Z,6.30
2018-06-05T13:28:45.922Z,4.90
2018-06-05T13:31:14.939Z,5.10
2018-06-05T13:33:44.014Z,5.00
2018-06-05T13:36:13.147Z,4.90
2018-06-05T13:38:42.215Z,4.83
2018-06-05T13:41:11.851Z,5.37
2018-06-05T13:43:40.869Z,5.23
2018-06-05T13:46:10.825Z,4.93
2018-06-05T13:48:40.840Z,5.60
2018-06-05T13:51:09.880Z,6.10
2018-06-05T13:53:40.258Z,6.30
2018-06-05T13:56:09.378Z,5.63
2018-06-05T13:58:38.379Z,5.47
2018-06-05T14:01:07.502Z,5.40
2018-06-05T14:03:37.275Z,5.87
2018-06-05T14:06:06.748Z,4.70
2018-06-05T14:08:35.928Z,4.77
2018-06-05T14:11:04.958Z,5.37
2018-06-05T14:13:34.019Z,5.43
2018-06-05T14:16:03.152Z,5.13
2018-06-05T14:18:32.287Z,5.43
2018-06-05T14:21:01.354Z,5.73
2018-06-05T14:23:30.454Z,6.83
2018-06-05T14:26:01.664Z,4.60
2018-06-05T14:28:30.718Z,5.43
2018-06-05T14:30:59.779Z,5.50
2018-06-05T14:33:28.768Z,5.13
2018-06-05T14:35:57.818Z,5.50
2018-06-05T14:38:26.857Z,5.30
2018-06-05T14:40:55.920Z,5.27
2018-06-05T14:43:24.921Z,5.10
2018-06-05T14:45:53.982Z,5.50
2018-06-05T14:48:22.973Z,5.30
2018-06-05T14:50:52.037Z,5.23
2018-06-05T14:53:21.239Z,5.20
2018-06-05T14:55:50.260Z,5.03
2018-06-05T14:58:19.895Z,5.57
2018-06-05T15:00:49.110Z,5.30
2018-06-05T15:03:18.237Z,6.93
2018-06-05T15:05:47.196Z,6.20
2018-06-05T15:08:16.199Z,6.07
2018-06-05T15:10:45.269Z,5.80
2018-06-05T15:13:14.353Z,5.97
2018-06-05T15:15:43.316Z,6.23
2018-06-05T15:18:12.386Z,6.00
2018-06-05T15:20:41.443Z,6.50
2018-06-05T15:23:10.565Z,6.60
2018-06-05T15:25:39.732Z,6.30
2018-06-05T15:28:08.793Z,6.67
2018-06-05T15:30:37.882Z,5.90
2018-06-05T15:33:06.959Z,5.90
2018-06-05T15:35:36.070Z,6.60
2018-06-05T15:38:05.173Z,6.93
2018-06-05T15:40:34.283Z,7.00
2018-06-05T15:43:03.392Z,6.20
2018-06-05T15:45:32.429Z,6.43
2018-06-05T15:48:01.463Z,6.77
2018-06-05T15:50:30.553Z,6.40
2018-06-05T15:53:00.565Z,4.90
2018-06-05T15:55:29.656Z,6.80
2018-06-05T15:57:58.849Z,7.30
2018-06-05T16:00:27.913Z,6.67
2018-06-05T16:02:57.097Z,7.50
2018-06-05T16:05:26.138Z,7.20
2018-06-05T16:07:55.197Z,7.23
2018-06-05T16:10:25.371Z,7.90
2018-06-05T16:12:54.462Z,7.50
2018-06-05T16:15:23.831Z,7.70
2018-06-05T16:17:53.551Z,6.80
2018-06-05T16:20:22.848Z,7.23
2018-06-05T16:22:52.252Z,7.37
2018-06-05T16:25:21.520Z,7.60
2018-06-05T16:27:50.986Z,7.27
2018-06-05T16:30:20.353Z,6.80
2018-06-05T16:32:49.738Z,8.20
2018-06-05T16:35:19.445Z,7.60
2018-06-05T16:37:48.900Z,7.17
2018-06-05T16:40:18.827Z,7.97
2018-06-05T16:42:47.996Z,7.30
2018-06-05T16:45:17.051Z,8.40
2018-06-05T16:47:46.187Z,7.80
2018-06-05T16:50:15.284Z,7.33
2018-06-05T16:52:44.337Z,7.80
2018-06-05T16:55:14.506Z,7.67
2018-06-05T16:57:43.542Z,7.50
2018-06-05T17:00:12.726Z,8.40
2018-06-05T17:02:41.757Z,8.27
2018-06-05T17:05:10.853Z,8.00
2018-06-05T17:07:39.828Z,8.90
2018-06-05T17:10:10.017Z,8.93
2018-06-05T17:12:39.043Z,8.97
2018-06-05T17:15:08.156Z,9.07
2018-06-05T17:17:37.206Z,9.90
2018-06-05T17:20:06.212Z,8.47
2018-06-05T17:22:35.258Z,8.93
2018-06-05T17:25:04.444Z,8.60
2018-06-05T17:27:33.841Z,9.13
2018-06-05T17:30:02.839Z,9.10
2018-06-05T17:32:31.831Z,9.10
2018-06-05T17:35:00.842Z,9.57
2018-06-05T17:37:29.885Z,8.47
2018-06-05T17:39:59.012Z,9.97
2018-06-05T17:42:27.991Z,9.27
2018-06-05T17:44:57.102Z,8.40
2018-06-05T17:47:26.285Z,8.50
2018-06-05T17:49:55.353Z,9.17
2018-06-05T17:52:24.394Z,8.83
2018-06-05T17:54:54.137Z,8.27
2018-06-05T17:57:23.309Z,9.00
2018-06-05T17:59:52.582Z,10.37
2018-06-05T18:02:21.789Z,9.63
2018-06-05T18:04:50.972Z,8.00
2018-06-05T18:07:20.600Z,8.93
2018-06-05T18:09:50.469Z,9.17
2018-06-05T18:12:19.655Z,9.03
2018-06-05T18:14:48.753Z,9.03
2018-06-05T18:17:18.016Z,9.00
2018-06-05T18:19:47.231Z,8.73
2018-06-05T18:22:16.629Z,8.60
2018-06-05T18:24:45.708Z,8.63
2018-06-05T18:27:15.986Z,10.20
2018-06-05T18:29:45.767Z,9.20
2018-06-05T18:32:15.595Z,9.20
2018-06-05T18:34:45.701Z,8.37
2018-06-05T18:37:15.036Z,8.80
2018-06-05T18:39:44.118Z,8.80
2018-06-05T18:42:13.368Z,8.90
2018-06-05T18:44:42.695Z,9.07
2018-06-05T18:47:11.983Z,9.20
2018-06-05T18:49:41.032Z,8.27
2018-06-05T18:52:10.234Z,8.57
2018-06-05T18:54:39.578Z,8.50
2018-06-05T18:57:08.790Z,8.00
2018-06-05T18:59:37.953Z,9.27
2018-06-05T19:02:07.307Z,8.77
2018-06-05T19:04:36.533Z,7.07
2018-06-05T19:07:05.623Z,10.20
2018-06-05T19:09:34.816Z,9.90
2018-06-05T19:12:04.140Z,8.90
2018-06-05T19:14:35.606Z,8.90
2018-06-05T19:17:04.722Z,8.60
2018-06-05T19:19:34.058Z,8.90
2018-06-05T19:22:03.895Z,9.10
2018-06-05T19:24:33.068Z,9.60
2018-06-05T19:27:02.437Z,8.60
2018-06-05T19:29:31.744Z,9.20
2018-06-05T19:32:00.963Z,9.97
2018-06-05T19:34:30.226Z,9.17
2018-06-05T19:36:59.462Z,8.83
2018-06-05T19:39:28.636Z,8.03
2018-06-05T19:41:57.681Z,7.73
2018-06-05T19:44:26.821Z,7.63
2018-06-05T19:46:56.215Z,7.30
2018-06-05T19:49:25.352Z,8.90
2018-06-05T19:51:54.825Z,8.20
2018-06-05T19:54:24.015Z,7.70
2018-06-05T19:56:54.538Z,7.00
2018-06-05T19:59:24.683Z,7.10
2018-06-05T20:01:54.030Z,6.37
2018-06-05T20:04:23.430Z,6.10
2018-06-05T20:06:53.761Z,6.80
2018-06-05T20:09:23.073Z,6.47
2018-06-05T20:11:52.508Z,6.03
2018-06-05T20:14:21.989Z,7.03
2018-06-05T20:16:51.395Z,6.30
2018-06-05T20:19:21.205Z,6.10
2018-06-05T20:21:50.360Z,6.93
2018-06-05T20:24:19.386Z,7.13
2018-06-05T20:26:48.510Z,6.40
2018-06-05T20:29:17.854Z,6.70
2018-06-05T20:31:46.939Z,6.80
2018-06-05T20:34:16.084Z,6.53
2018-06-05T20:36:45.135Z,6.80
2018-06-05T20:39:14.172Z,6.57
2018-06-05T20:41:43.190Z,7.00
2018-06-05T20:44:12.369Z,6.40
2018-06-05T20:46:41.469Z,6.40
2018-06-05T20:49:10.493Z,7.20
2018-06-05T20:51:39.481Z,6.03
2018-06-05T20:54:08.534Z,6.40
2018-06-05T20:56:37.516Z,6.60
2018-06-05T20:59:06.567Z,6.60
2018-06-05T21:01:36.291Z,6.10
2018-06-05T21:04:05.321Z,7.23
2018-06-05T21:06:40.777Z,7.30
2018-06-05T21:09:10.070Z,6.07
2018-06-05T21:11:39.127Z,5.80
2018-06-05T21:14:08.152Z,6.63
2018-06-05T21:16:37.197Z,6.97
2018-06-05T21:19:06.746Z,6.43
2018-06-05T21:21:35.858Z,6.73
2018-06-05T21:24:05.009Z,7.20
2018-06-05T21:26:34.101Z,6.60
2018-06-05T21:29:03.200Z,6.47
2018-06-05T21:31:32.327Z,7.37
2018-06-05T21:34:01.358Z,6.40
2018-06-05T21:36:30.731Z,6.90
2018-06-05T21:38:59.953Z,7.20
2018-06-05T21:41:29.287Z,7.50
2018-06-05T21:43:58.356Z,6.60
2018-06-05T21:46:27.519Z,7.00
2018-06-05T21:48:56.462Z,6.80
2018-06-05T21:51:25.538Z,5.77
2018-06-05T21:53:54.509Z,6.70
2018-06-05T21:56:23.719Z,7.90
2018-06-05T21:58:53.107Z,5.80
2018-06-05T22:01:22.301Z,7.20
2018-06-05T22:03:51.253Z,6.50
2018-06-05T22:06:20.286Z,7.17
2018-06-05T22:08:49.314Z,6.40
2018-06-05T22:11:18.442Z,7.33
2018-06-05T22:13:47.477Z,7.00
2018-06-05T22:16:16.564Z,6.43
2018-06-05T22:18:45.590Z,7.17
2018-06-05T22:21:14.569Z,7.00
2018-06-05T22:23:43.748Z,7.20
2018-06-05T22:26:12.757Z,7.60
2018-06-05T22:28:41.978Z,7.60
2018-06-05T22:31:10.929Z,8.37
2018-06-05T22:33:39.994Z,7.07
2018-06-05T22:36:09.038Z,7.57
2018-06-05T22:38:38.034Z,7.23
2018-06-05T22:41:07.091Z,6.90
2018-06-05T22:43:36.088Z,8.03
2018-06-05T22:46:05.141Z,7.10
2018-06-05T22:48:34.311Z,6.37
2018-06-05T22:51:03.281Z,6.40
2018-06-05T22:53:32.443Z,7.10
2018-06-05T22:56:01.442Z,6.30
2018-06-05T22:58:30.490Z,6.40
2018-06-05T23:00:59.517Z,6.07
2018-06-05T23:03:28.635Z,7.27
2018-06-05T23:05:57.577Z,7.47
2018-06-05T23:08:26.567Z,6.23
2018-06-05T23:10:56.021Z,6.50
2018-06-05T23:13:25.059Z,7.10
2018-06-05T23:15:54.148Z,7.13
2018-06-05T23:18:23.200Z,7.37
2018-06-05T23:20:52.300Z,6.63
2018-06-05T23:23:21.293Z,7.07
2018-06-05T23:25:50.400Z,6.80
2018-06-05T23:28:19.333Z,6.90
2018-06-05T23:30:48.347Z,6.43
2018-06-05T23:33:17.391Z,6.63
2018-06-05T23:35:46.426Z,6.33
2018-06-05T23:38:15.881Z,5.80
2018-06-05T23:40:44.877Z,6.17
2018-06-05T23:43:14.986Z,7.07
2018-06-05T23:45:43.913Z,6.43
2018-06-05T23:48:13.130Z,7.03
2018-06-05T23:50:42.086Z,6.30
2018-06-05T23:53:11.240Z,6.93
2018-06-05T23:55:40.215Z,6.90
2018-06-05T23:58:09.419Z,6.60
